createdAt,value
2023-02-22T00:01:39.120Z,27.50
2023-02-22T00:04:07.926Z,27.50
2023-02-22T00:06:36.519Z,27.40
2023-02-22T00:09:04.935Z,27.40
2023-02-22T00:11:33.365Z,27.50
2023-02-22T00:14:02.106Z,27.50
2023-02-22T00:16:35.770Z,27.40
2023-02-22T00:19:04.022Z,27.40
2023-02-22T00:21:32.386Z,27.40
2023-02-22T00:24:00.597Z,27.40
2023-02-22T00:26:29.056Z,27.40
2023-02-22T00:28:57.355Z,27.40
2023-02-22T00:31:25.899Z,27.40
2023-02-22T00:33:54.369Z,27.40
2023-02-22T00:36:22.730Z,27.40
2023-02-22T00:38:50.811Z,27.40
2023-02-22T00:41:19.498Z,27.40
2023-02-22T00:43:47.933Z,27.40
2023-02-22T00:46:16.408Z,27.40
2023-02-22T00:48:44.896Z,27.40
2023-02-22T00:51:13.289Z,27.50
2023-02-22T00:53:41.456Z,27.40
2023-02-22T00:56:13.258Z,27.40
2023-02-22T00:58:41.560Z,27.30
2023-02-22T01:01:10.009Z,27.30
2023-02-22T01:03:40.003Z,27.20
2023-02-22T01:06:08.661Z,27.20
2023-02-22T01:08:37.124Z,27.20
2023-02-22T01:11:05.610Z,27.20
2023-02-22T01:13:33.842Z,27.20
2023-02-22T01:16:02.300Z,27.20
2023-02-22T01:18:31.180Z,27.10
2023-02-22T01:20:59.395Z,27.10
2023-02-22T01:23:28.108Z,27.10
2023-02-22T01:25:59.414Z,27.10
2023-02-22T01:28:27.752Z,27.10
2023-02-22T01:30:56.356Z,27.10
2023-02-22T01:33:25.439Z,27.10
2023-02-22T01:35:54.322Z,27.10
2023-02-22T01:38:22.714Z,27.00
2023-02-22T01:40:55.033Z,27.00
2023-02-22T01:43:26.126Z,27.00
2023-02-22T01:45:58.573Z,27.00
2023-02-22T01:48:32.672Z,26.90
2023-02-22T01:51:09.861Z,26.90
2023-02-22T01:53:50.385Z,26.90
2023-02-22T01:56:20.350Z,26.80
2023-02-22T01:58:59.937Z,26.80
2023-02-22T02:01:30.109Z,26.80
2023-02-22T02:04:02.162Z,26.80
2023-02-22T02:06:32.438Z,26.80
2023-02-22T02:09:05.033Z,26.80
2023-02-22T02:11:34.059Z,26.80
2023-02-22T02:14:02.414Z,26.80
2023-02-22T02:16:41.788Z,26.80
2023-02-22T02:19:50.679Z,26.80
2023-02-22T02:22:22.088Z,26.70
2023-02-22T02:25:19.560Z,26.70
2023-02-22T02:28:12.349Z,26.70
2023-02-22T02:31:01.344Z,26.70
2023-02-22T02:33:41.940Z,26.60
2023-02-22T02:36:21.272Z,26.60
2023-02-22T02:38:58.312Z,26.60
2023-02-22T02:41:50.083Z,26.60
2023-02-22T02:44:42.700Z,26.60
2023-02-22T02:47:20.330Z,26.60
2023-02-22T02:50:29.006Z,26.60
2023-02-22T02:53:01.764Z,26.60
2023-02-22T02:55:34.558Z,26.60
2023-02-22T02:58:04.447Z,26.60
2023-02-22T03:00:38.264Z,26.50
2023-02-22T03:03:23.278Z,26.50
2023-02-22T03:06:09.156Z,26.50
2023-02-22T03:09:22.059Z,26.40
2023-02-22T03:12:18.221Z,26.40
2023-02-22T03:15:14.252Z,26.30
2023-02-22T03:18:03.939Z,26.30
2023-02-22T03:20:47.924Z,26.40
2023-02-22T03:23:27.690Z,26.30
2023-02-22T03:26:11.463Z,26.30
2023-02-22T03:28:53.055Z,26.30
2023-02-22T03:31:26.448Z,26.30
2023-02-22T03:34:07.379Z,26.30
2023-02-22T03:36:43.404Z,26.30
2023-02-22T03:39:16.696Z,26.20
2023-02-22T03:41:50.145Z,26.20
2023-02-22T03:44:23.514Z,26.20
2023-02-22T03:46:55.077Z,26.20
2023-02-22T03:49:41.595Z,26.20
2023-02-22T03:52:15.983Z,26.10
2023-02-22T03:54:45.423Z,26.10
2023-02-22T03:57:13.846Z,26.00
2023-02-22T03:59:44.684Z,26.00
2023-02-22T04:02:13.261Z,26.10
2023-02-22T04:04:41.552Z,26.00
2023-02-22T04:07:10.179Z,26.00
2023-02-22T04:09:39.782Z,26.00
2023-02-22T04:12:08.831Z,26.00
2023-02-22T04:14:52.105Z,25.90
2023-02-22T04:17:20.349Z,25.90
2023-02-22T04:19:48.759Z,26.00
2023-02-22T04:22:17.235Z,26.00
2023-02-22T04:24:46.931Z,26.00
2023-02-22T04:27:18.261Z,25.90
2023-02-22T04:29:47.407Z,26.00
2023-02-22T04:32:16.726Z,26.00
2023-02-22T04:34:44.982Z,26.00
2023-02-22T04:37:13.502Z,26.00
2023-02-22T04:39:41.928Z,26.00
2023-02-22T04:42:10.795Z,26.00
2023-02-22T04:44:39.457Z,26.00
2023-02-22T04:47:07.854Z,25.90
2023-02-22T04:49:38.862Z,25.90
2023-02-22T04:52:07.952Z,25.90
2023-02-22T04:54:39.276Z,25.90
2023-02-22T04:57:07.687Z,25.90
2023-02-22T04:59:36.028Z,26.00
2023-02-22T05:02:05.011Z,25.90
2023-02-22T05:04:33.442Z,25.90
2023-02-22T05:07:01.741Z,25.90
2023-02-22T05:09:30.110Z,25.80
2023-02-22T05:11:58.406Z,25.90
2023-02-22T05:14:26.843Z,25.90
2023-02-22T05:16:59.082Z,25.90
2023-02-22T05:19:30.475Z,25.80
2023-02-22T05:21:58.781Z,25.80
2023-02-22T05:24:27.013Z,25.80
2023-02-22T05:26:55.250Z,25.80
2023-02-22T05:29:23.478Z,25.70
2023-02-22T05:31:51.785Z,25.80
2023-02-22T05:34:20.162Z,25.80
2023-02-22T05:36:48.499Z,25.80
2023-02-22T05:39:16.871Z,25.80
2023-02-22T05:41:45.125Z,25.80
2023-02-22T05:44:13.298Z,25.80
2023-02-22T05:46:41.550Z,25.80
2023-02-22T05:49:15.436Z,25.70
2023-02-22T05:51:43.646Z,25.70
2023-02-22T05:54:12.002Z,25.80
2023-02-22T05:56:40.260Z,25.80
2023-02-22T05:59:08.532Z,25.80
2023-02-22T06:01:37.015Z,25.80
2023-02-22T06:04:05.264Z,25.80
2023-02-22T06:06:33.470Z,25.80
2023-02-22T06:09:01.839Z,25.70
2023-02-22T06:11:30.252Z,25.70
2023-02-22T06:14:05.136Z,25.70
2023-02-22T06:16:33.559Z,25.70
2023-02-22T06:19:05.345Z,25.70
2023-02-22T06:21:34.162Z,25.70
2023-02-22T06:24:05.417Z,25.70
2023-02-22T06:26:33.708Z,25.70
2023-02-22T06:29:01.900Z,25.70
2023-02-22T06:31:30.097Z,25.70
2023-02-22T06:33:58.416Z,25.70
2023-02-22T06:36:26.725Z,25.70
2023-02-22T06:39:46.495Z,25.70
2023-02-22T06:42:05.466Z,25.70
2023-02-22T06:44:34.080Z,25.70
2023-02-22T06:47:33.642Z,25.70
2023-02-22T06:50:02.195Z,25.60
2023-02-22T06:52:30.479Z,25.70
2023-02-22T06:54:58.650Z,25.60
2023-02-22T06:57:26.908Z,25.60
2023-02-22T06:59:55.073Z,25.60
2023-02-22T07:02:23.671Z,25.60
2023-02-22T07:04:51.887Z,25.60
2023-02-22T07:07:23.691Z,25.60
2023-02-22T07:10:16.858Z,25.60
2023-02-22T07:12:45.194Z,25.60
2023-02-22T07:15:18.716Z,25.60
2023-02-22T07:17:47.037Z,25.50
2023-02-22T07:20:15.431Z,25.60
2023-02-22T07:22:45.024Z,25.60
2023-02-22T07:25:14.088Z,25.60
2023-02-22T07:27:43.229Z,25.60
2023-02-22T07:30:24.523Z,25.60
2023-02-22T07:32:54.829Z,25.60
2023-02-22T07:35:34.687Z,25.60
2023-02-22T07:38:03.127Z,25.60
2023-02-22T07:40:31.608Z,25.60
2023-02-22T07:43:15.394Z,25.60
2023-02-22T07:45:44.275Z,25.60
2023-02-22T07:48:14.009Z,25.60
2023-02-22T07:50:42.985Z,25.60
2023-02-22T07:53:28.660Z,25.60
2023-02-22T07:55:58.861Z,25.70
2023-02-22T07:58:30.458Z,25.70
2023-02-22T08:01:01.091Z,25.70
2023-02-22T08:03:33.512Z,25.80
2023-02-22T08:06:01.896Z,25.80
2023-02-22T08:08:30.257Z,25.90
2023-02-22T08:10:58.852Z,25.90
2023-02-22T08:13:27.059Z,25.90
2023-02-22T08:15:55.747Z,25.90
2023-02-22T08:18:25.284Z,26.00
2023-02-22T08:20:54.433Z,26.00
2023-02-22T08:23:25.412Z,26.00
2023-02-22T08:25:54.554Z,26.00
2023-02-22T08:28:24.639Z,26.10
2023-02-22T08:30:53.268Z,26.20
2023-02-22T08:33:22.784Z,26.20
2023-02-22T08:35:51.570Z,26.20
2023-02-22T08:38:21.804Z,26.30
2023-02-22T08:40:50.642Z,26.30
2023-02-22T08:43:20.477Z,26.30
2023-02-22T08:45:49.871Z,26.30
2023-02-22T08:48:19.060Z,26.40
2023-02-22T08:50:47.346Z,26.40
2023-02-22T08:53:16.599Z,26.50
2023-02-22T08:55:45.855Z,26.50
2023-02-22T08:58:14.754Z,26.50
2023-02-22T09:00:43.878Z,26.50
2023-02-22T09:03:14.482Z,26.60
2023-02-22T09:05:43.859Z,26.70
2023-02-22T09:08:12.406Z,26.70
2023-02-22T09:10:40.843Z,26.70
2023-02-22T09:13:09.689Z,26.70
2023-02-22T09:15:38.235Z,26.80
2023-02-22T09:18:08.686Z,26.80
2023-02-22T09:20:37.574Z,26.90
2023-02-22T09:23:07.204Z,26.90
2023-02-22T09:25:35.492Z,27.00
2023-02-22T09:28:04.007Z,27.10
2023-02-22T09:30:35.621Z,27.10
2023-02-22T09:33:11.305Z,27.20
2023-02-22T09:35:41.093Z,27.30
2023-02-22T09:38:10.450Z,27.30
2023-02-22T09:40:42.977Z,27.30
2023-02-22T09:43:22.284Z,27.40
2023-02-22T09:46:23.012Z,27.40
2023-02-22T09:49:40.417Z,27.50
2023-02-22T09:52:13.650Z,27.60
2023-02-22T09:55:04.968Z,27.70
2023-02-22T09:57:38.241Z,27.80
2023-02-22T10:00:30.675Z,27.80
2023-02-22T10:03:08.321Z,27.90
2023-02-22T10:05:43.301Z,28.00
2023-02-22T10:08:17.365Z,28.10
2023-02-22T10:10:48.466Z,28.00
2023-02-22T10:13:32.336Z,28.10
2023-02-22T10:16:21.395Z,28.10
2023-02-22T10:19:15.677Z,28.00
2023-02-22T10:21:47.078Z,28.10
2023-02-22T10:24:24.405Z,28.10
2023-02-22T10:26:54.701Z,28.10
2023-02-22T10:29:36.796Z,28.10
2023-02-22T10:32:05.977Z,28.20
2023-02-22T10:34:46.722Z,28.10
2023-02-22T10:37:17.965Z,28.10
2023-02-22T10:39:49.053Z,28.20
2023-02-22T10:42:17.400Z,28.30
2023-02-22T10:44:46.512Z,28.40
2023-02-22T10:47:18.090Z,28.30
2023-02-22T10:49:57.052Z,28.50
2023-02-22T10:52:31.891Z,28.50
2023-02-22T10:55:14.644Z,28.50
2023-02-22T10:57:46.730Z,28.60
2023-02-22T11:00:36.568Z,28.60
2023-02-22T11:03:20.165Z,28.70
2023-02-22T11:05:49.336Z,28.70
2023-02-22T11:08:35.452Z,28.70
2023-02-22T11:11:21.433Z,28.90
2023-02-22T11:13:55.237Z,28.80
2023-02-22T11:16:28.585Z,29.00
2023-02-22T11:19:18.541Z,29.00
2023-02-22T11:21:48.190Z,29.00
2023-02-22T11:26:48.490Z,29.00
2023-02-22T11:29:22.815Z,29.10
2023-02-22T11:31:51.907Z,29.20
2023-02-22T11:34:46.312Z,29.20
2023-02-22T11:37:34.219Z,29.10
2023-02-22T11:40:09.378Z,29.10
2023-02-22T11:42:37.741Z,29.10
2023-02-22T11:45:16.633Z,29.30
2023-02-22T11:47:58.598Z,29.30
2023-02-22T11:50:34.514Z,29.30
2023-02-22T11:53:30.259Z,29.30
2023-02-22T11:56:50.998Z,29.30
2023-02-22T11:59:47.771Z,29.40
2023-02-22T12:02:34.441Z,29.60
2023-02-22T12:05:16.857Z,29.60
2023-02-22T12:08:24.405Z,29.60
2023-02-22T12:11:07.939Z,29.50
2023-02-22T12:13:55.449Z,29.40
2023-02-22T12:17:03.282Z,29.30
2023-02-22T12:20:06.021Z,29.40
2023-02-22T12:22:38.610Z,29.40
2023-02-22T12:25:20.617Z,29.50
2023-02-22T12:28:00.848Z,29.70
2023-02-22T12:30:38.391Z,29.80
2023-02-22T12:33:14.973Z,29.80
2023-02-22T12:35:54.119Z,29.80
2023-02-22T12:38:42.762Z,29.90
2023-02-22T12:41:39.047Z,29.90
2023-02-22T12:44:18.542Z,29.90
2023-02-22T12:46:57.877Z,30.00
2023-02-22T12:49:47.583Z,30.10
2023-02-22T12:52:22.775Z,30.00
2023-02-22T12:55:10.559Z,29.90
2023-02-22T12:57:49.420Z,30.00
2023-02-22T13:00:27.024Z,30.00
2023-02-22T13:03:01.249Z,29.90
2023-02-22T13:05:35.023Z,30.00
2023-02-22T13:08:11.112Z,30.10
2023-02-22T13:11:24.196Z,30.20
2023-02-22T13:13:58.547Z,30.30
2023-02-22T13:16:45.207Z,30.30
2023-02-22T13:19:39.231Z,30.30
2023-02-22T13:22:25.313Z,30.40
2023-02-22T13:25:18.330Z,30.50
2023-02-22T13:27:52.815Z,30.70
2023-02-22T13:30:29.926Z,30.80
2023-02-22T13:33:21.277Z,30.80
2023-02-22T13:36:06.825Z,30.90
2023-02-22T13:39:12.834Z,31.10
2023-02-22T13:41:43.858Z,31.10
2023-02-22T13:44:33.357Z,31.10
2023-02-22T13:47:16.646Z,31.10
2023-02-22T13:50:17.421Z,31.10
2023-02-22T13:52:47.654Z,31.10
2023-02-22T13:55:33.200Z,31.10
2023-02-22T13:58:07.904Z,31.30
2023-02-22T14:00:50.085Z,31.20
2023-02-22T14:03:35.228Z,31.30
2023-02-22T14:06:27.264Z,31.30
2023-02-22T14:08:55.835Z,31.20
2023-02-22T14:11:23.916Z,31.20
2023-02-22T14:13:55.242Z,31.10
2023-02-22T14:16:31.887Z,31.30
2023-02-22T14:19:05.162Z,31.50
2023-02-22T14:21:35.070Z,31.50
2023-02-22T14:24:21.742Z,31.70
2023-02-22T14:27:06.282Z,31.70
2023-02-22T14:29:34.820Z,31.70
2023-02-22T14:32:11.284Z,31.80
2023-02-22T14:34:55.102Z,31.90
2023-02-22T14:37:25.905Z,31.90
2023-02-22T14:40:06.614Z,31.80
2023-02-22T14:42:38.498Z,31.70
2023-02-22T14:45:28.367Z,31.80
2023-02-22T14:48:02.298Z,31.90
2023-02-22T14:50:33.497Z,32.00
2023-02-22T14:53:28.946Z,31.90
2023-02-22T14:56:01.480Z,32.00
2023-02-22T14:58:41.374Z,32.00
2023-02-22T15:01:48.998Z,32.00
2023-02-22T15:04:30.114Z,32.00
2023-02-22T15:07:00.713Z,32.10
2023-02-22T15:09:34.435Z,32.10
2023-02-22T15:12:06.201Z,32.10
2023-02-22T15:14:36.841Z,32.10
2023-02-22T15:17:21.400Z,31.80
2023-02-22T15:19:50.458Z,31.80
2023-02-22T15:22:31.799Z,32.00
2023-02-22T15:25:05.983Z,31.90
2023-02-22T15:27:37.340Z,32.00
2023-02-22T15:30:26.935Z,31.80
2023-02-22T15:33:04.177Z,31.80
2023-02-22T15:35:34.336Z,31.90
2023-02-22T15:38:12.871Z,31.80
2023-02-22T15:40:42.416Z,32.10
2023-02-22T15:43:19.760Z,32.00
2023-02-22T15:45:48.308Z,31.90
2023-02-22T15:48:16.537Z,31.90
2023-02-22T15:51:06.272Z,32.10
2023-02-22T15:53:43.170Z,32.10
2023-02-22T15:56:18.605Z,32.00
2023-02-22T15:58:48.220Z,32.00
2023-02-22T16:01:19.824Z,32.10
2023-02-22T16:04:00.700Z,32.10
2023-02-22T16:06:41.133Z,31.90
2023-02-22T16:09:24.482Z,32.10
2023-02-22T16:12:11.978Z,32.00
2023-02-22T16:14:42.304Z,32.20
2023-02-22T16:17:22.697Z,31.90
2023-02-22T16:19:51.537Z,31.70
2023-02-22T16:22:29.383Z,31.70
2023-02-22T16:25:13.437Z,31.80
2023-02-22T16:27:52.962Z,31.80
2023-02-22T16:30:29.503Z,31.90
2023-02-22T16:32:58.875Z,31.90
2023-02-22T16:35:29.167Z,32.00
2023-02-22T16:38:06.682Z,31.80
2023-02-22T16:40:39.308Z,31.80
2023-02-22T16:43:12.310Z,31.80
2023-02-22T16:45:42.496Z,31.80
2023-02-22T16:48:21.743Z,31.70
2023-02-22T16:50:51.753Z,31.70
2023-02-22T16:53:23.199Z,31.80
2023-02-22T16:55:53.256Z,31.70
2023-02-22T16:58:21.647Z,31.50
2023-02-22T17:00:49.867Z,31.50
2023-02-22T17:03:19.390Z,31.40
2023-02-22T17:05:47.773Z,31.40
2023-02-22T17:08:16.133Z,31.40
2023-02-22T17:10:45.356Z,31.30
2023-02-22T17:13:23.084Z,31.20
2023-02-22T17:15:53.094Z,31.20
2023-02-22T17:18:23.147Z,31.20
2023-02-22T17:20:54.860Z,31.00
2023-02-22T17:23:24.814Z,31.10
2023-02-22T17:25:58.819Z,31.10
2023-02-22T17:28:27.851Z,31.10
2023-02-22T17:30:57.743Z,30.90
2023-02-22T17:33:26.494Z,30.80
2023-02-22T17:35:56.670Z,30.70
2023-02-22T17:38:25.465Z,30.40
2023-02-22T17:40:53.728Z,30.30
2023-02-22T17:43:24.980Z,30.00
2023-02-22T17:45:53.318Z,30.00
2023-02-22T17:48:24.036Z,30.00
2023-02-22T17:50:53.456Z,30.00
2023-02-22T17:53:22.147Z,29.80
2023-02-22T17:55:50.925Z,29.80
2023-02-22T17:58:19.765Z,29.70
2023-02-22T18:00:51.165Z,29.70
2023-02-22T18:03:21.801Z,29.60
2023-02-22T18:05:52.171Z,29.50
2023-02-22T18:08:21.828Z,29.50
2023-02-22T18:10:50.108Z,29.50
2023-02-22T18:13:18.808Z,29.40
2023-02-22T18:15:47.667Z,29.40
2023-02-22T18:18:16.761Z,29.30
2023-02-22T18:20:46.773Z,29.10
2023-02-22T18:23:17.496Z,29.10
2023-02-22T18:26:07.584Z,29.10
2023-02-22T18:28:38.277Z,29.10
2023-02-22T18:31:18.360Z,29.10
2023-02-22T18:33:49.942Z,29.00
2023-02-22T18:36:19.978Z,28.90
2023-02-22T18:38:48.816Z,28.90
2023-02-22T18:41:18.820Z,28.80
2023-02-22T18:43:47.259Z,28.70
2023-02-22T18:46:20.314Z,28.70
2023-02-22T18:48:53.325Z,28.70
2023-02-22T18:51:21.666Z,28.60
2023-02-22T18:53:50.467Z,28.60
2023-02-22T18:56:20.236Z,28.60
2023-02-22T18:58:49.260Z,28.50
2023-02-22T19:01:19.302Z,28.50
2023-02-22T19:03:47.903Z,28.50
2023-02-22T19:06:17.783Z,28.50
2023-02-22T19:08:47.198Z,28.50
2023-02-22T19:11:18.811Z,28.50
2023-02-22T19:13:50.477Z,28.40
2023-02-22T19:16:23.042Z,28.40
2023-02-22T19:18:53.321Z,28.40
2023-02-22T19:21:21.852Z,28.40
2023-02-22T19:23:50.904Z,28.40
2023-02-22T19:26:21.668Z,28.40
2023-02-22T19:28:51.002Z,28.40
2023-02-22T19:31:23.479Z,28.30
2023-02-22T19:33:52.764Z,28.30
2023-02-22T19:36:22.818Z,28.30
2023-02-22T19:38:51.646Z,28.30
2023-02-22T19:41:23.148Z,28.30
2023-02-22T19:43:53.408Z,28.20
2023-02-22T19:46:22.318Z,28.20
2023-02-22T19:48:51.244Z,28.20
2023-02-22T19:51:21.405Z,28.20
2023-02-22T19:53:49.843Z,28.20
2023-02-22T19:56:20.468Z,28.10
2023-02-22T19:58:51.260Z,28.10
2023-02-22T20:01:25.997Z,28.10
2023-02-22T20:04:02.996Z,28.10
2023-02-22T20:06:42.412Z,28.10
2023-02-22T20:09:14.632Z,28.10
2023-02-22T20:11:43.040Z,28.10
2023-02-22T20:14:22.695Z,28.00
2023-02-22T20:16:52.085Z,28.10
2023-02-22T20:19:20.712Z,28.10
2023-02-22T20:21:49.551Z,28.10
2023-02-22T20:24:17.680Z,28.10
2023-02-22T20:26:46.681Z,28.00
2023-02-22T20:29:16.219Z,28.00
2023-02-22T20:31:45.366Z,28.00
2023-02-22T20:34:13.635Z,28.00
2023-02-22T20:39:00.121Z,28.00
2023-02-22T20:41:31.098Z,27.90
2023-02-22T20:44:00.740Z,28.00
2023-02-22T20:46:31.908Z,28.00
2023-02-22T20:52:04.683Z,27.90
2023-02-22T20:54:32.893Z,28.00
2023-02-22T20:57:01.184Z,28.00
2023-02-22T20:59:29.547Z,28.00
2023-02-22T21:01:57.801Z,28.00
2023-02-22T21:04:26.550Z,28.00
2023-02-22T21:06:54.931Z,27.90
2023-02-22T21:09:23.256Z,27.90
2023-02-22T21:11:51.416Z,27.90
2023-02-22T21:14:20.245Z,27.90
2023-02-22T21:16:50.572Z,28.00
2023-02-22T21:19:20.772Z,27.90
2023-02-22T21:21:49.125Z,27.90
2023-02-22T21:24:17.263Z,27.90
2023-02-22T21:26:45.656Z,27.90
2023-02-22T21:29:13.966Z,27.90
2023-02-22T21:31:42.420Z,27.80
2023-02-22T21:34:13.308Z,27.80
2023-02-22T21:36:41.694Z,27.80
2023-02-22T21:39:13.614Z,27.80
2023-02-22T21:41:41.995Z,27.80
2023-02-22T21:44:10.107Z,27.80
2023-02-22T21:46:38.395Z,27.80
2023-02-22T21:49:06.810Z,27.70
2023-02-22T21:51:35.883Z,27.80
2023-02-22T21:54:09.417Z,27.80
2023-02-22T21:56:40.919Z,27.80
2023-02-22T21:59:13.438Z,27.70
2023-02-22T22:01:51.590Z,27.70
2023-02-22T22:04:22.806Z,27.70
2023-02-22T22:06:53.023Z,27.70
2023-02-22T22:09:22.003Z,27.70
2023-02-22T22:11:58.757Z,27.70
2023-02-22T22:14:28.060Z,27.70
2023-02-22T22:16:58.138Z,27.70
2023-02-22T22:19:28.041Z,27.70
2023-02-22T22:21:57.278Z,27.70
2023-02-22T22:24:25.674Z,27.70
2023-02-22T22:26:53.939Z,27.70
2023-02-22T22:29:24.628Z,27.70
2023-02-22T22:31:53.227Z,27.70
2023-02-22T22:34:22.299Z,27.60
2023-02-22T22:36:51.039Z,27.60
2023-02-22T22:39:19.209Z,27.60
2023-02-22T22:41:47.789Z,27.60
2023-02-22T22:44:16.490Z,27.60
2023-02-22T22:46:44.895Z,27.60
2023-02-22T22:49:14.322Z,27.60
2023-02-22T22:51:43.442Z,27.60
2023-02-22T22:54:11.907Z,27.60
2023-02-22T22:56:40.166Z,27.60
2023-02-22T22:59:12.377Z,27.60
2023-02-22T23:01:43.796Z,27.60
2023-02-22T23:04:15.153Z,27.50
2023-02-22T23:06:51.689Z,27.50
2023-02-22T23:09:28.908Z,27.50
2023-02-22T23:12:02.831Z,27.50
2023-02-22T23:14:31.442Z,27.50
2023-02-22T23:17:01.265Z,27.50
2023-02-22T23:19:30.783Z,27.50
2023-02-22T23:21:59.148Z,27.50
2023-02-22T23:24:28.103Z,27.60
2023-02-22T23:26:57.797Z,27.60
2023-02-22T23:29:26.551Z,27.50
2023-02-22T23:31:54.932Z,27.50
2023-02-22T23:34:24.157Z,27.40
2023-02-22T23:36:52.758Z,27.50
2023-02-22T23:39:22.477Z,27.40
2023-02-22T23:41:52.106Z,27.40
2023-02-22T23:44:20.659Z,27.40
2023-02-22T23:46:50.580Z,27.40
2023-02-22T23:49:19.072Z,27.40
2023-02-22T23:51:48.183Z,27.40
2023-02-22T23:54:19.948Z,27.40
2023-02-22T23:56:49.369Z,27.40
2023-02-22T23:59:17.842Z,27.40
